createdAt,value
2022-10-05T00:02:22.045Z,82.45
2022-10-05T00:04:51.983Z,82.78
2022-10-05T00:07:21.268Z,83.43
2022-10-05T00:09:59.305Z,82.41
2022-10-05T00:12:28.351Z,82.70
2022-10-05T00:14:59.595Z,83.31
2022-10-05T00:17:28.865Z,81.93
2022-10-05T00:19:56.754Z,81.76
2022-10-05T00:22:32.564Z,81.87
2022-10-05T00:25:11.321Z,81.03
2022-10-05T00:27:38.127Z,81.86
2022-10-05T00:30:13.888Z,80.72
2022-10-05T00:32:42.916Z,80.31
2022-10-05T00:35:11.337Z,81.75
2022-10-05T00:37:38.784Z,83.00
2022-10-05T00:40:28.719Z,81.91
2022-10-05T00:43:22.851Z,81.73
2022-10-05T00:46:03.065Z,81.65
2022-10-05T00:48:34.307Z,81.04
2022-10-05T00:51:19.447Z,80.73
2022-10-05T00:53:46.272Z,80.90
2022-10-05T00:56:38.790Z,81.55
2022-10-05T00:59:22.001Z,82.79
2022-10-05T01:02:07.048Z,81.80
2022-10-05T01:04:53.685Z,82.96
2022-10-05T01:07:29.610Z,83.33
2022-10-05T01:10:19.319Z,82.85
2022-10-05T01:13:13.839Z,83.78
2022-10-05T01:15:43.679Z,82.66
2022-10-05T01:18:22.310Z,83.15
2022-10-05T01:20:59.822Z,83.80
2022-10-05T01:24:05.984Z,84.13
2022-10-05T01:27:16.040Z,84.02
2022-10-05T01:30:03.325Z,84.96
2022-10-05T01:32:34.030Z,84.19
2022-10-05T01:35:29.936Z,83.75
2022-10-05T01:38:22.843Z,83.59
2022-10-05T01:41:21.409Z,83.02
2022-10-05T01:44:03.342Z,82.65
2022-10-05T01:46:43.664Z,82.01
2022-10-05T01:49:16.846Z,82.75
2022-10-05T01:51:48.135Z,82.71
2022-10-05T01:54:53.134Z,82.08
2022-10-05T01:57:39.946Z,82.70
2022-10-05T02:00:25.153Z,82.26
2022-10-05T02:03:00.118Z,83.67
2022-10-05T02:05:35.424Z,82.93
2022-10-05T02:08:19.451Z,82.54
2022-10-05T02:11:07.844Z,82.80
2022-10-05T02:13:34.922Z,83.74
2022-10-05T02:16:17.788Z,83.51
2022-10-05T02:18:56.546Z,84.63
2022-10-05T02:21:24.847Z,83.48
2022-10-05T02:23:57.747Z,84.05
2022-10-05T02:26:26.186Z,84.39
2022-10-05T02:28:59.790Z,83.78
2022-10-05T02:31:39.659Z,84.09
2022-10-05T02:34:26.699Z,83.64
2022-10-05T02:37:22.056Z,84.88
2022-10-05T02:40:02.268Z,85.31
2022-10-05T02:42:51.664Z,83.96
2022-10-05T02:45:24.705Z,83.68
2022-10-05T02:48:21.090Z,83.08
2022-10-05T02:51:05.157Z,83.26
2022-10-05T02:53:43.792Z,84.30
2022-10-05T02:56:31.309Z,84.68
2022-10-05T02:59:17.927Z,83.32
2022-10-05T03:01:58.043Z,83.02
2022-10-05T03:04:32.848Z,83.86
2022-10-05T03:07:14.240Z,84.62
2022-10-05T03:09:49.428Z,84.10
2022-10-05T03:12:44.039Z,85.03
2022-10-05T03:15:48.468Z,86.12
2022-10-05T03:18:30.782Z,85.10
2022-10-05T03:21:28.745Z,85.67
2022-10-05T03:24:23.889Z,85.84
2022-10-05T03:27:04.879Z,85.23
2022-10-05T03:29:43.360Z,85.30
2022-10-05T03:32:42.083Z,84.83
2022-10-05T03:35:19.846Z,84.60
2022-10-05T03:37:46.764Z,83.82
2022-10-05T03:40:32.342Z,83.58
2022-10-05T03:43:18.531Z,83.53
2022-10-05T03:46:24.404Z,84.34
2022-10-05T03:49:15.865Z,83.93
2022-10-05T03:51:48.492Z,84.51
2022-10-05T03:54:21.231Z,85.31
2022-10-05T03:56:55.992Z,84.96
2022-10-05T03:59:32.705Z,84.73
2022-10-05T04:02:06.385Z,83.96
2022-10-05T04:04:53.050Z,83.64
2022-10-05T04:07:42.375Z,83.99
2022-10-05T04:10:39.753Z,83.84
2022-10-05T04:13:16.385Z,83.91
2022-10-05T04:15:57.236Z,84.17
2022-10-05T04:18:34.546Z,85.07
2022-10-05T04:21:23.911Z,85.82
2022-10-05T04:24:09.505Z,86.23
2022-10-05T04:26:55.678Z,86.08
2022-10-05T04:29:45.911Z,85.85
2022-10-05T04:32:15.594Z,86.31
2022-10-05T04:35:11.188Z,86.50
2022-10-05T04:37:54.078Z,86.18
2022-10-05T04:40:27.479Z,84.63
2022-10-05T04:43:16.169Z,84.62
2022-10-05T04:45:55.709Z,84.96
2022-10-05T04:48:46.440Z,84.40
2022-10-05T04:51:28.469Z,83.83
2022-10-05T04:54:17.352Z,84.60
2022-10-05T04:56:56.310Z,85.10
2022-10-05T05:00:14.879Z,84.80
2022-10-05T05:03:09.894Z,85.36
2022-10-05T05:06:15.972Z,85.74
2022-10-05T05:09:08.922Z,86.12
2022-10-05T05:11:52.880Z,85.92
2022-10-05T05:14:46.261Z,85.78
2022-10-05T05:17:41.873Z,85.72
2022-10-05T05:20:32.281Z,86.68
2022-10-05T05:23:46.963Z,86.96
2022-10-05T05:26:42.625Z,86.57
2022-10-05T05:29:21.774Z,87.11
2022-10-05T05:32:23.782Z,87.72
2022-10-05T05:35:11.814Z,87.93
2022-10-05T05:37:58.986Z,87.58
2022-10-05T05:40:32.235Z,87.78
2022-10-05T05:43:03.175Z,88.08
2022-10-05T05:45:46.483Z,88.73
2022-10-05T05:48:42.637Z,88.31
2022-10-05T05:51:25.557Z,88.25
2022-10-05T05:54:07.357Z,89.17
2022-10-05T05:56:40.281Z,89.49
2022-10-05T05:59:29.225Z,89.26
2022-10-05T06:02:08.441Z,88.87
2022-10-05T06:04:46.754Z,89.42
2022-10-05T06:07:19.110Z,89.42
2022-10-05T06:10:19.769Z,90.08
2022-10-05T06:13:04.986Z,90.22
2022-10-05T06:15:47.099Z,90.58
2022-10-05T06:18:19.987Z,90.10
2022-10-05T06:20:58.637Z,89.77
2022-10-05T06:23:47.897Z,89.48
2022-10-05T06:26:26.969Z,89.56
2022-10-05T06:29:02.668Z,90.16
2022-10-05T06:31:49.714Z,89.72
2022-10-05T06:34:36.070Z,89.87
2022-10-05T06:37:12.909Z,89.42
2022-10-05T06:40:00.914Z,88.80
2022-10-05T06:42:50.820Z,88.72
2022-10-05T06:45:53.778Z,88.41
2022-10-05T06:48:55.302Z,87.51
2022-10-05T06:52:08.014Z,86.76
2022-10-05T06:54:51.959Z,85.87
2022-10-05T06:58:01.700Z,85.48
2022-10-05T07:00:35.659Z,85.48
2022-10-05T07:03:12.275Z,84.97
2022-10-05T07:05:52.501Z,84.51
2022-10-05T07:08:43.264Z,84.30
2022-10-05T07:11:38.552Z,83.35
2022-10-05T07:14:05.820Z,83.62
2022-10-05T07:16:47.766Z,82.63
2022-10-05T07:19:28.272Z,81.77
2022-10-05T07:22:13.968Z,80.83
2022-10-05T07:24:56.273Z,81.27
2022-10-05T07:27:27.317Z,80.82
2022-10-05T07:30:07.990Z,80.41
2022-10-05T07:32:56.421Z,78.58
2022-10-05T07:35:50.643Z,79.66
2022-10-05T07:38:32.564Z,78.58
2022-10-05T07:41:09.100Z,79.15
2022-10-05T07:44:02.166Z,78.53
2022-10-05T07:46:46.950Z,78.13
2022-10-05T07:49:27.017Z,77.99
2022-10-05T07:52:06.630Z,77.31
2022-10-05T07:54:42.236Z,76.52
2022-10-05T07:57:38.508Z,76.76
2022-10-05T08:00:13.271Z,76.88
2022-10-05T08:03:11.187Z,76.78
2022-10-05T08:05:42.410Z,75.49
2022-10-05T08:08:30.118Z,75.09
2022-10-05T08:11:07.469Z,75.29
2022-10-05T08:13:52.542Z,74.54
2022-10-05T08:16:19.838Z,74.38
2022-10-05T08:19:15.279Z,74.31
2022-10-05T08:21:48.114Z,74.65
2022-10-05T08:24:37.296Z,74.21
2022-10-05T08:27:24.489Z,72.26
2022-10-05T08:30:02.098Z,73.73
2022-10-05T08:32:58.792Z,73.54
2022-10-05T08:35:42.671Z,73.46
2022-10-05T08:38:25.034Z,72.96
2022-10-05T08:41:16.245Z,73.03
2022-10-05T08:43:51.819Z,73.29
2022-10-05T08:46:29.392Z,72.25
2022-10-05T08:49:35.499Z,72.10
2022-10-05T08:52:24.675Z,71.80
2022-10-05T08:55:09.955Z,71.77
2022-10-05T08:58:07.012Z,72.75
2022-10-05T09:00:54.368Z,71.81
2022-10-05T09:03:45.932Z,71.55
2022-10-05T09:06:39.899Z,71.83
2022-10-05T09:09:32.190Z,71.06
2022-10-05T09:12:37.116Z,71.76
2022-10-05T09:15:45.354Z,71.02
2022-10-05T09:18:52.109Z,70.72
2022-10-05T09:21:40.370Z,71.29
2022-10-05T09:24:10.080Z,71.07
2022-10-05T09:26:44.044Z,70.82
2022-10-05T09:29:19.909Z,70.97
2022-10-05T09:32:16.671Z,71.35
2022-10-05T09:34:58.461Z,70.65
2022-10-05T09:37:35.115Z,70.66
2022-10-05T09:40:16.922Z,70.54
2022-10-05T09:42:58.617Z,69.83
2022-10-05T09:45:56.208Z,70.92
2022-10-05T09:48:39.630Z,70.86
2022-10-05T09:51:38.653Z,70.29
2022-10-05T09:54:14.141Z,70.80
2022-10-05T09:56:46.812Z,70.30
2022-10-05T09:59:45.896Z,69.97
2022-10-05T10:02:44.600Z,69.83
2022-10-05T10:05:33.670Z,69.57
2022-10-05T10:08:17.690Z,69.66
2022-10-05T10:11:21.844Z,68.58
2022-10-05T10:14:30.381Z,68.80
2022-10-05T10:17:08.801Z,68.46
2022-10-05T10:20:01.969Z,68.56
2022-10-05T10:22:55.577Z,68.75
2022-10-05T10:25:56.008Z,68.52
2022-10-05T10:28:41.053Z,68.83
2022-10-05T10:31:34.704Z,69.49
2022-10-05T10:34:23.057Z,68.80
2022-10-05T10:37:14.295Z,69.30
2022-10-05T10:40:08.651Z,69.04
2022-10-05T10:43:14.246Z,69.12
2022-10-05T10:46:02.190Z,69.58
2022-10-05T10:48:29.069Z,68.69
2022-10-05T10:51:18.021Z,68.89
2022-10-05T10:54:14.355Z,68.33
2022-10-05T10:57:02.600Z,68.89
2022-10-05T10:59:47.653Z,68.82
2022-10-05T11:02:32.578Z,68.29
2022-10-05T11:05:14.223Z,68.37
2022-10-05T11:08:01.193Z,68.21
2022-10-05T11:10:33.630Z,67.86
2022-10-05T11:13:31.047Z,68.18
2022-10-05T11:16:31.204Z,68.02
2022-10-05T11:19:16.755Z,68.27
2022-10-05T11:22:13.235Z,68.27
2022-10-05T11:25:22.416Z,67.71
2022-10-05T11:28:14.982Z,68.66
2022-10-05T11:31:10.865Z,68.64
2022-10-05T11:34:08.003Z,68.31
2022-10-05T11:36:52.566Z,68.22
2022-10-05T11:39:44.530Z,68.17
2022-10-05T11:42:30.168Z,68.10
2022-10-05T11:45:18.179Z,68.55
2022-10-05T11:48:08.129Z,68.71
2022-10-05T11:50:57.408Z,68.11
2022-10-05T11:53:33.583Z,68.21
2022-10-05T11:56:27.024Z,67.67
2022-10-05T11:59:02.190Z,68.01
2022-10-05T12:01:41.892Z,67.88
2022-10-05T12:04:29.834Z,67.38
2022-10-05T12:07:14.612Z,67.41
2022-10-05T12:10:20.489Z,68.19
2022-10-05T12:12:56.704Z,67.88
2022-10-05T12:15:29.646Z,67.81
2022-10-05T12:18:13.203Z,67.12
2022-10-05T12:21:01.454Z,67.32
2022-10-05T12:23:37.468Z,67.33
2022-10-05T12:26:14.529Z,66.66
2022-10-05T12:28:47.397Z,66.53
2022-10-05T12:31:50.352Z,66.36
2022-10-05T12:34:51.807Z,66.06
2022-10-05T12:37:36.795Z,65.90
2022-10-05T12:40:14.492Z,65.52
2022-10-05T12:42:50.850Z,65.66
2022-10-05T12:45:43.812Z,65.95
2022-10-05T12:48:29.367Z,64.81
2022-10-05T12:51:19.417Z,65.42
2022-10-05T12:54:03.197Z,65.28
2022-10-05T12:56:42.660Z,64.74
2022-10-05T12:59:31.156Z,64.98
2022-10-05T13:02:06.781Z,64.37
2022-10-05T13:04:52.276Z,63.60
2022-10-05T13:07:35.513Z,63.98
2022-10-05T13:10:11.759Z,63.62
2022-10-05T13:13:26.238Z,63.22
2022-10-05T13:16:04.693Z,62.75
2022-10-05T13:18:51.772Z,63.50
2022-10-05T13:21:33.273Z,63.72
2022-10-05T13:24:11.825Z,63.56
2022-10-05T13:26:46.231Z,64.08
2022-10-05T13:29:21.685Z,63.95
2022-10-05T13:31:56.154Z,63.42
2022-10-05T13:34:25.605Z,63.39
2022-10-05T13:37:33.756Z,63.93
2022-10-05T13:40:03.279Z,63.57
2022-10-05T13:42:39.759Z,64.06
2022-10-05T13:45:15.224Z,63.66
2022-10-05T13:48:17.666Z,63.45
2022-10-05T13:51:05.206Z,63.58
2022-10-05T13:53:49.609Z,63.45
2022-10-05T13:56:20.745Z,63.44
2022-10-05T13:59:18.189Z,63.00
2022-10-05T14:01:56.768Z,63.64
2022-10-05T14:04:49.225Z,63.36
2022-10-05T14:07:36.297Z,63.70
2022-10-05T14:10:11.672Z,63.87
2022-10-05T14:12:44.263Z,63.69
2022-10-05T14:15:56.336Z,63.77
2022-10-05T14:18:24.138Z,63.92
2022-10-05T14:21:09.174Z,63.75
2022-10-05T14:23:36.212Z,63.86
2022-10-05T14:26:04.523Z,63.64
2022-10-05T14:28:35.624Z,63.79
2022-10-05T14:31:15.025Z,64.10
2022-10-05T14:33:42.258Z,64.04
2022-10-05T14:36:15.594Z,64.07
2022-10-05T14:39:01.510Z,64.15
2022-10-05T14:41:34.369Z,64.21
2022-10-05T14:44:13.194Z,64.06
2022-10-05T14:46:53.101Z,64.26
2022-10-05T14:49:32.076Z,64.52
2022-10-05T14:51:58.912Z,64.54
2022-10-05T14:54:28.600Z,64.31
2022-10-05T14:57:09.680Z,64.27
2022-10-05T14:59:42.225Z,64.26
2022-10-05T15:02:33.342Z,64.40
2022-10-05T15:05:28.171Z,64.54
2022-10-05T15:08:01.613Z,64.62
2022-10-05T15:10:28.384Z,64.60
2022-10-05T15:13:00.685Z,64.61
2022-10-05T15:15:39.473Z,64.80
2022-10-05T15:18:27.199Z,64.65
2022-10-05T15:21:15.165Z,64.86
2022-10-05T15:23:52.581Z,65.03
2022-10-05T15:26:56.727Z,65.10
2022-10-05T15:29:53.220Z,65.35
2022-10-05T15:32:37.990Z,65.46
2022-10-05T15:35:49.218Z,65.67
2022-10-05T15:38:25.953Z,65.86
2022-10-05T15:41:22.991Z,65.80
2022-10-05T15:44:01.076Z,65.83
2022-10-05T15:46:52.561Z,65.98
2022-10-05T15:49:43.840Z,66.20
2022-10-05T15:52:45.650Z,66.38
2022-10-05T15:55:27.828Z,66.34
2022-10-05T15:57:57.570Z,66.47
2022-10-05T16:00:26.525Z,66.61
2022-10-05T16:03:12.071Z,66.92
2022-10-05T16:05:45.700Z,66.91
2022-10-05T16:08:34.795Z,66.79
2022-10-05T16:11:04.869Z,67.21
2022-10-05T16:13:44.601Z,67.17
2022-10-05T16:16:25.074Z,67.16
2022-10-05T16:19:13.841Z,67.24
2022-10-05T16:21:48.507Z,67.38
2022-10-05T16:24:18.174Z,67.54
2022-10-05T16:26:59.657Z,67.67
2022-10-05T16:29:55.448Z,67.84
2022-10-05T16:32:26.355Z,68.12
2022-10-05T16:35:21.769Z,68.14
2022-10-05T16:38:15.015Z,68.00
2022-10-05T16:41:09.790Z,68.17
2022-10-05T16:43:42.928Z,68.38
2022-10-05T16:46:40.754Z,68.16
2022-10-05T16:49:22.481Z,68.44
2022-10-05T16:51:58.265Z,68.71
2022-10-05T16:54:43.106Z,68.43
2022-10-05T16:57:26.932Z,68.84
2022-10-05T17:00:16.069Z,69.08
2022-10-05T17:02:52.326Z,68.77
2022-10-05T17:05:53.080Z,69.26
2022-10-05T17:08:44.701Z,68.98
2022-10-05T17:11:23.428Z,69.39
2022-10-05T17:13:56.239Z,69.76
2022-10-05T17:16:36.099Z,69.48
2022-10-05T17:19:33.344Z,69.86
2022-10-05T17:22:21.521Z,69.52
2022-10-05T17:25:06.534Z,69.93
2022-10-05T17:27:53.997Z,69.77
2022-10-05T17:30:38.509Z,69.84
2022-10-05T17:33:22.562Z,69.43
2022-10-05T17:36:01.279Z,69.92
2022-10-05T17:38:31.098Z,70.24
2022-10-05T17:41:00.853Z,70.34
2022-10-05T17:43:29.897Z,70.05
2022-10-05T17:46:10.193Z,70.59
2022-10-05T17:49:06.737Z,70.22
2022-10-05T17:51:33.559Z,71.01
2022-10-05T17:54:21.164Z,71.32
2022-10-05T17:56:48.845Z,70.83
2022-10-05T17:59:53.697Z,71.02
2022-10-05T18:02:36.308Z,71.88
2022-10-05T18:05:03.952Z,71.59
2022-10-05T18:07:35.851Z,72.04
2022-10-05T18:10:12.079Z,71.44
2022-10-05T18:12:46.157Z,71.85
2022-10-05T18:15:37.558Z,71.80
2022-10-05T18:18:35.290Z,72.12
2022-10-05T18:21:22.766Z,72.67
2022-10-05T18:23:55.405Z,72.31
2022-10-05T18:26:34.787Z,72.59
2022-10-05T18:29:02.007Z,72.72
2022-10-05T18:31:42.650Z,73.25
2022-10-05T18:34:21.359Z,72.79
2022-10-05T18:37:07.523Z,73.04
2022-10-05T18:39:44.634Z,73.01
2022-10-05T18:42:48.433Z,73.33
2022-10-05T18:45:36.609Z,73.05
2022-10-05T18:48:22.761Z,73.19
2022-10-05T18:51:03.529Z,73.35
2022-10-05T18:53:47.261Z,73.26
2022-10-05T18:56:43.567Z,73.58
2022-10-05T18:59:40.177Z,73.56
2022-10-05T19:02:44.224Z,73.43
2022-10-05T19:05:53.424Z,73.66
2022-10-05T19:08:51.865Z,73.82
2022-10-05T19:11:48.618Z,74.07
2022-10-05T19:14:37.179Z,74.02
2022-10-05T19:17:25.909Z,74.12
2022-10-05T19:20:04.333Z,73.92
2022-10-05T19:22:34.313Z,74.45
2022-10-05T19:25:38.387Z,74.03
2022-10-05T19:28:38.712Z,74.55
2022-10-05T19:31:27.901Z,74.31
2022-10-05T19:34:39.140Z,74.88
2022-10-05T19:37:13.684Z,75.08
2022-10-05T19:39:49.885Z,74.88
2022-10-05T19:42:39.133Z,75.38
2022-10-05T19:45:09.314Z,74.55
2022-10-05T19:48:04.198Z,74.65
2022-10-05T19:50:37.014Z,75.02
2022-10-05T19:53:11.835Z,74.83
2022-10-05T19:55:41.736Z,74.86
2022-10-05T19:58:27.111Z,75.36
2022-10-05T20:01:00.107Z,75.02
2022-10-05T20:03:31.496Z,75.37
2022-10-05T20:06:04.127Z,75.46
2022-10-05T20:08:46.306Z,75.32
2022-10-05T20:11:21.928Z,75.53
2022-10-05T20:13:55.233Z,75.46
2022-10-05T20:16:25.647Z,75.29
2022-10-05T20:18:53.362Z,75.49
2022-10-05T20:21:39.013Z,75.37
2022-10-05T20:24:27.234Z,76.25
2022-10-05T20:26:57.443Z,76.11
2022-10-05T20:29:24.182Z,76.04
2022-10-05T20:31:51.035Z,76.00
2022-10-05T20:34:17.882Z,76.56
2022-10-05T20:36:44.873Z,76.54
2022-10-05T20:39:12.045Z,76.67
2022-10-05T20:41:38.883Z,76.90
2022-10-05T20:44:05.676Z,76.69
2022-10-05T20:46:32.579Z,76.58
2022-10-05T20:48:59.382Z,76.58
2022-10-05T20:51:26.339Z,76.83
2022-10-05T20:53:53.155Z,76.91
2022-10-05T20:56:19.906Z,76.90
2022-10-05T20:58:46.727Z,77.50
2022-10-05T21:01:13.536Z,77.46
2022-10-05T21:03:40.377Z,77.18
2022-10-05T21:06:07.495Z,77.45
2022-10-05T21:08:34.399Z,77.38
2022-10-05T21:11:01.165Z,76.63
2022-10-05T21:13:27.957Z,77.54
2022-10-05T21:15:54.761Z,74.28
2022-10-05T21:18:21.586Z,75.48
2022-10-05T21:20:48.500Z,77.80
2022-10-05T21:23:15.409Z,78.54
2022-10-05T21:25:42.159Z,78.23
2022-10-05T21:28:09.027Z,78.63
2022-10-05T21:30:35.969Z,79.03
2022-10-05T21:33:02.699Z,79.57
2022-10-05T21:35:29.479Z,79.09
2022-10-05T21:37:56.286Z,79.16
2022-10-05T21:40:23.096Z,79.66
2022-10-05T21:42:49.859Z,79.96
2022-10-05T21:45:16.818Z,80.20
2022-10-05T21:47:43.580Z,80.52
2022-10-05T21:50:10.561Z,80.56
2022-10-05T21:52:37.398Z,80.80
2022-10-05T21:55:05.875Z,81.15
2022-10-05T21:57:34.653Z,81.42
2022-10-05T22:00:01.673Z,81.36
2022-10-05T22:02:33.284Z,81.74
2022-10-05T22:05:00.264Z,80.50
2022-10-05T22:07:28.231Z,80.14
2022-10-05T22:09:55.353Z,79.79
2022-10-05T22:12:22.431Z,78.96
2022-10-05T22:14:49.391Z,79.46
2022-10-05T22:17:27.928Z,79.65
2022-10-05T22:19:55.815Z,79.55
2022-10-05T22:22:22.765Z,79.12
2022-10-05T22:24:50.323Z,78.71
2022-10-05T22:27:17.436Z,79.72
2022-10-05T22:29:44.524Z,79.80
2022-10-05T22:32:11.414Z,81.12
2022-10-05T22:34:38.231Z,83.54
2022-10-05T22:37:06.555Z,81.89
2022-10-05T22:39:33.334Z,81.35
2022-10-05T22:42:00.055Z,82.24
2022-10-05T22:44:27.034Z,82.18
2022-10-05T22:46:53.818Z,82.02
2022-10-05T22:49:20.757Z,82.03
2022-10-05T22:51:47.598Z,81.71
2022-10-05T22:54:14.406Z,81.98
2022-10-05T22:56:41.158Z,81.54
2022-10-05T22:59:08.028Z,81.69
2022-10-05T23:01:34.935Z,81.83
2022-10-05T23:04:02.137Z,81.10
2022-10-05T23:06:30.345Z,80.76
2022-10-05T23:08:57.391Z,81.51
2022-10-05T23:11:27.354Z,81.88
2022-10-05T23:13:55.819Z,81.60
2022-10-05T23:16:25.671Z,81.10
2022-10-05T23:18:54.071Z,81.08
2022-10-05T23:21:23.138Z,80.79
2022-10-05T23:23:50.138Z,80.99
2022-10-05T23:26:19.163Z,82.07
2022-10-05T23:28:46.049Z,81.45
2022-10-05T23:31:16.186Z,81.63
2022-10-05T23:33:43.642Z,80.69
2022-10-05T23:36:19.511Z,82.98
2022-10-05T23:38:47.161Z,82.51
2022-10-05T23:41:14.191Z,82.83
2022-10-05T23:43:40.979Z,83.42
2022-10-05T23:46:09.014Z,83.50
2022-10-05T23:48:37.091Z,83.08
2022-10-05T23:51:05.561Z,82.61
2022-10-05T23:53:32.538Z,83.38
2022-10-05T23:55:59.819Z,83.41
2022-10-05T23:58:27.376Z,83.89
